createdAt,value
2023-08-17T00:01:36.445Z,22.96
2023-08-17T00:04:03.307Z,22.95
2023-08-17T00:06:30.082Z,22.93
2023-08-17T00:08:57.228Z,22.93
2023-08-17T00:11:24.196Z,22.92
2023-08-17T00:13:51.266Z,22.89
2023-08-17T00:16:18.282Z,22.86
2023-08-17T00:18:45.198Z,22.86
2023-08-17T00:21:11.821Z,22.86
2023-08-17T00:23:38.458Z,22.86
2023-08-17T00:26:05.085Z,22.88
2023-08-17T00:28:31.721Z,22.87
2023-08-17T00:31:00.535Z,22.86
2023-08-17T00:33:27.212Z,22.85
2023-08-17T00:35:53.835Z,22.85
2023-08-17T00:38:20.698Z,22.84
2023-08-17T00:40:48.003Z,22.84
2023-08-17T00:43:15.015Z,22.83
2023-08-17T00:45:42.619Z,22.86
2023-08-17T00:48:10.709Z,22.89
2023-08-17T00:50:38.992Z,22.91
2023-08-17T00:53:05.872Z,22.90
2023-08-17T00:55:34.458Z,22.88
2023-08-17T00:58:01.761Z,22.87
2023-08-17T01:00:28.815Z,22.84
2023-08-17T01:02:56.598Z,22.84
2023-08-17T01:05:25.021Z,22.81
2023-08-17T01:07:51.769Z,22.72
2023-08-17T01:10:19.135Z,22.64
2023-08-17T01:13:12.169Z,22.55
2023-08-17T01:15:43.536Z,22.46
2023-08-17T01:18:27.798Z,22.43
2023-08-17T01:20:55.680Z,22.42
2023-08-17T01:23:23.850Z,22.40
2023-08-17T01:25:50.605Z,22.39
2023-08-17T01:28:17.300Z,22.38
2023-08-17T01:30:56.182Z,22.40
2023-08-17T01:33:49.408Z,22.43
2023-08-17T01:36:23.907Z,22.45
2023-08-17T01:38:53.532Z,22.45
2023-08-17T01:41:23.743Z,22.48
2023-08-17T01:43:51.206Z,22.50
2023-08-17T01:46:19.060Z,22.51
2023-08-17T01:48:46.619Z,22.52
2023-08-17T01:51:19.997Z,22.51
2023-08-17T01:53:47.296Z,22.47
2023-08-17T01:56:14.301Z,22.42
2023-08-17T01:58:40.986Z,22.32
2023-08-17T02:01:07.812Z,22.23
2023-08-17T02:03:34.541Z,22.21
2023-08-17T02:06:01.752Z,22.21
2023-08-17T02:08:28.492Z,22.20
2023-08-17T02:10:55.091Z,22.18
2023-08-17T02:13:22.020Z,22.18
2023-08-17T02:19:00.598Z,22.20
2023-08-17T02:21:27.267Z,22.19
2023-08-17T02:23:53.894Z,22.19
2023-08-17T02:26:21.956Z,22.20
2023-08-17T02:28:48.651Z,22.20
2023-08-17T02:31:15.278Z,22.17
2023-08-17T02:33:41.977Z,22.18
2023-08-17T02:36:08.665Z,22.13
2023-08-17T02:38:35.255Z,22.10
2023-08-17T02:41:01.878Z,22.11
2023-08-17T02:43:28.822Z,22.14
2023-08-17T02:45:55.513Z,22.17
2023-08-17T02:48:22.135Z,22.18
2023-08-17T02:50:48.783Z,22.16
2023-08-17T02:53:15.404Z,22.10
2023-08-17T02:55:42.357Z,22.09
2023-08-17T02:58:08.978Z,22.07
2023-08-17T03:00:35.655Z,22.00
2023-08-17T03:03:02.384Z,21.97
2023-08-17T03:05:29.049Z,21.97
2023-08-17T03:07:55.710Z,21.91
2023-08-17T03:10:22.312Z,21.83
2023-08-17T03:12:50.776Z,21.83
2023-08-17T03:15:17.992Z,21.85
2023-08-17T03:17:45.474Z,21.88
2023-08-17T03:20:12.343Z,21.89
2023-08-17T03:22:39.029Z,21.89
2023-08-17T03:25:06.724Z,21.89
2023-08-17T03:27:33.885Z,21.88
2023-08-17T03:30:01.268Z,21.88
2023-08-17T03:32:28.236Z,21.87
2023-08-17T03:34:54.891Z,21.88
2023-08-17T03:37:22.190Z,21.89
2023-08-17T03:39:48.867Z,21.90
2023-08-17T03:42:15.758Z,21.92
2023-08-17T03:44:42.392Z,21.95
2023-08-17T03:47:09.010Z,21.99
2023-08-17T03:49:35.700Z,22.02
2023-08-17T03:52:02.318Z,22.05
2023-08-17T03:54:29.023Z,22.07
2023-08-17T03:56:55.712Z,22.08
2023-08-17T03:59:22.480Z,22.10
2023-08-17T04:01:49.169Z,22.14
2023-08-17T04:04:15.886Z,22.18
2023-08-17T04:06:42.836Z,22.23
2023-08-17T04:09:09.470Z,22.27
2023-08-17T04:11:37.804Z,22.29
2023-08-17T04:14:05.024Z,22.31
2023-08-17T04:16:33.440Z,22.34
2023-08-17T04:19:00.583Z,22.39
2023-08-17T04:21:27.571Z,22.44
2023-08-17T04:23:54.447Z,22.50
2023-08-17T04:26:21.802Z,22.56
2023-08-17T04:28:48.508Z,22.62
2023-08-17T04:31:15.691Z,22.68
2023-08-17T04:33:42.466Z,22.73
2023-08-17T04:36:09.140Z,22.76
2023-08-17T04:38:35.788Z,22.79
2023-08-17T04:41:02.642Z,22.78
2023-08-17T04:43:29.291Z,22.79
2023-08-17T04:45:56.091Z,22.84
2023-08-17T04:48:22.792Z,22.93
2023-08-17T04:50:50.547Z,23.01
2023-08-17T04:53:17.424Z,23.09
2023-08-17T04:55:44.189Z,23.17
2023-08-17T04:58:11.630Z,23.24
2023-08-17T05:00:38.801Z,23.32
2023-08-17T05:03:06.916Z,23.40
2023-08-17T05:05:38.678Z,23.47
2023-08-17T05:08:07.289Z,23.55
2023-08-17T05:10:34.041Z,23.62
2023-08-17T05:13:00.728Z,23.68
2023-08-17T05:15:29.045Z,23.73
2023-08-17T05:17:57.508Z,23.74
2023-08-17T05:20:24.490Z,23.73
2023-08-17T05:22:51.171Z,23.70
2023-08-17T05:25:18.386Z,23.72
2023-08-17T05:27:45.187Z,23.78
2023-08-17T05:30:12.217Z,23.86
2023-08-17T05:32:38.865Z,23.96
2023-08-17T05:35:07.489Z,24.05
2023-08-17T05:37:34.175Z,24.16
2023-08-17T05:40:00.863Z,24.25
2023-08-17T05:42:27.530Z,24.35
2023-08-17T05:44:54.310Z,24.46
2023-08-17T05:47:23.025Z,24.57
2023-08-17T05:49:49.722Z,24.65
2023-08-17T05:52:16.413Z,24.77
2023-08-17T05:54:43.869Z,24.89
2023-08-17T05:57:11.800Z,25.00
2023-08-17T05:59:38.576Z,25.14
2023-08-17T06:02:05.411Z,25.30
2023-08-17T06:04:32.158Z,25.46
2023-08-17T06:06:58.835Z,25.59
2023-08-17T06:09:25.623Z,25.72
2023-08-17T06:11:52.224Z,25.84
2023-08-17T06:14:18.922Z,25.95
2023-08-17T06:16:45.649Z,26.09
2023-08-17T06:19:12.417Z,26.23
2023-08-17T06:21:39.070Z,26.35
2023-08-17T06:24:06.085Z,26.51
2023-08-17T06:26:32.858Z,26.63
2023-08-17T06:29:00.025Z,26.69
2023-08-17T06:31:28.674Z,26.76
2023-08-17T06:33:55.804Z,26.82
2023-08-17T06:36:22.719Z,26.86
2023-08-17T06:38:49.507Z,26.87
2023-08-17T06:41:17.317Z,26.93
2023-08-17T06:43:43.934Z,26.96
2023-08-17T06:46:10.734Z,27.01
2023-08-17T06:48:37.419Z,27.03
2023-08-17T06:51:05.890Z,27.07
2023-08-17T06:53:32.649Z,27.14
2023-08-17T06:56:02.462Z,27.21
2023-08-17T06:58:29.681Z,27.33
2023-08-17T07:00:56.872Z,27.49
2023-08-17T07:03:23.840Z,27.59
2023-08-17T07:05:50.659Z,27.77
2023-08-17T07:08:18.094Z,28.11
2023-08-17T07:10:47.563Z,28.74
2023-08-17T07:13:14.272Z,29.30
2023-08-17T07:15:41.251Z,29.61
2023-08-17T07:18:08.004Z,29.78
2023-08-17T07:20:34.791Z,29.68
2023-08-17T07:23:01.481Z,29.69
2023-08-17T07:25:28.182Z,29.78
2023-08-17T07:27:54.885Z,29.92
2023-08-17T07:30:21.534Z,30.11
2023-08-17T07:32:48.312Z,30.31
2023-08-17T07:35:15.083Z,30.54
2023-08-17T07:37:42.393Z,30.82
2023-08-17T07:40:10.989Z,31.05
2023-08-17T07:42:38.398Z,31.08
2023-08-17T07:45:07.408Z,31.01
2023-08-17T07:47:40.192Z,31.06
2023-08-17T07:50:08.043Z,31.11
2023-08-17T07:52:34.784Z,31.12
2023-08-17T07:55:01.668Z,31.18
2023-08-17T07:57:28.766Z,31.21
2023-08-17T07:59:55.896Z,31.30
2023-08-17T08:02:22.944Z,31.43
2023-08-17T08:04:49.600Z,32.06
2023-08-17T08:07:16.244Z,32.99
2023-08-17T08:09:42.896Z,33.83
2023-08-17T08:12:09.826Z,33.94
2023-08-17T08:14:36.863Z,33.94
2023-08-17T08:17:03.570Z,34.54
2023-08-17T08:19:30.273Z,35.49
2023-08-17T08:21:56.916Z,35.94
2023-08-17T08:24:36.612Z,35.95
2023-08-17T08:27:05.100Z,35.72
2023-08-17T08:29:31.753Z,35.38
2023-08-17T08:32:00.738Z,35.31
2023-08-17T08:34:27.454Z,35.49
2023-08-17T08:36:54.138Z,35.84
2023-08-17T08:39:20.793Z,36.31
2023-08-17T08:41:47.463Z,37.02
2023-08-17T08:44:14.254Z,37.50
2023-08-17T08:46:43.208Z,37.62
2023-08-17T08:49:11.477Z,37.60
2023-08-17T08:51:52.176Z,37.86
2023-08-17T08:54:23.469Z,37.89
2023-08-17T08:56:57.060Z,37.56
2023-08-17T08:59:24.892Z,37.14
2023-08-17T09:01:52.032Z,37.04
2023-08-17T09:04:18.905Z,36.82
2023-08-17T09:06:47.237Z,36.64
2023-08-17T09:09:17.732Z,36.59
2023-08-17T09:11:45.435Z,36.73
2023-08-17T09:14:12.297Z,36.83
2023-08-17T09:16:39.048Z,37.09
2023-08-17T09:19:08.899Z,37.09
2023-08-17T09:21:35.648Z,37.18
2023-08-17T09:24:02.551Z,37.73
2023-08-17T09:26:33.812Z,38.34
2023-08-17T09:29:01.235Z,38.24
2023-08-17T09:31:31.599Z,37.44
2023-08-17T09:33:58.302Z,37.02
2023-08-17T09:36:28.690Z,37.24
2023-08-17T09:38:58.520Z,37.28
2023-08-17T09:41:27.678Z,37.27
2023-08-17T09:43:56.321Z,38.28
2023-08-17T09:46:23.192Z,39.26
2023-08-17T09:48:49.936Z,39.84
2023-08-17T09:51:17.457Z,40.21
2023-08-17T09:53:44.261Z,40.47
2023-08-17T09:58:43.555Z,41.13
2023-08-17T10:01:11.403Z,41.71
2023-08-17T10:03:43.353Z,41.54
2023-08-17T10:06:13.312Z,42.03
2023-08-17T10:08:45.476Z,43.19
2023-08-17T10:11:16.000Z,44.43
2023-08-17T10:14:04.024Z,44.93
2023-08-17T10:16:37.673Z,45.04
2023-08-17T10:19:14.102Z,45.07
2023-08-17T10:21:47.866Z,45.44
2023-08-17T10:24:15.352Z,45.40
2023-08-17T10:26:43.429Z,45.87
2023-08-17T10:29:15.343Z,46.08
2023-08-17T10:31:48.714Z,45.51
2023-08-17T10:34:17.067Z,45.48
2023-08-17T10:36:44.201Z,45.64
2023-08-17T10:39:29.141Z,46.44
2023-08-17T10:41:58.178Z,46.89
2023-08-17T10:44:51.701Z,47.22
2023-08-17T10:47:27.738Z,48.03
2023-08-17T10:50:21.129Z,48.35
2023-08-17T10:52:51.485Z,48.26
2023-08-17T10:55:38.081Z,47.88
2023-08-17T10:58:15.284Z,47.21
2023-08-17T11:00:46.173Z,47.10
2023-08-17T11:03:29.985Z,47.59
2023-08-17T11:06:00.101Z,47.43
2023-08-17T11:08:42.593Z,45.90
2023-08-17T11:11:15.731Z,44.54
2023-08-17T11:13:49.320Z,43.97
2023-08-17T11:16:23.533Z,43.05
2023-08-17T11:18:52.751Z,42.87
2023-08-17T11:21:22.439Z,42.49
2023-08-17T11:23:52.396Z,42.14
2023-08-17T11:26:23.504Z,41.55
2023-08-17T11:28:51.967Z,40.85
2023-08-17T11:31:22.444Z,40.54
2023-08-17T11:33:55.814Z,40.42
2023-08-17T11:36:26.271Z,40.10
2023-08-17T11:38:55.785Z,39.62
2023-08-17T11:41:25.404Z,39.15
2023-08-17T11:43:55.906Z,38.73
2023-08-17T11:46:29.078Z,38.33
2023-08-17T11:49:02.480Z,37.93
2023-08-17T11:51:43.125Z,37.56
2023-08-17T12:01:51.207Z,36.36
2023-08-17T12:04:18.199Z,36.19
2023-08-17T12:06:48.786Z,35.99
2023-08-17T12:09:15.652Z,35.83
2023-08-17T12:11:42.718Z,35.46
2023-08-17T12:14:12.121Z,35.10
2023-08-17T12:16:49.825Z,34.91
2023-08-17T12:19:21.929Z,34.88
2023-08-17T12:21:52.333Z,34.76
2023-08-17T12:24:20.860Z,34.92
2023-08-17T12:26:48.190Z,34.96
2023-08-17T12:29:15.438Z,34.85
2023-08-17T12:31:42.257Z,34.97
2023-08-17T12:34:09.077Z,35.25
2023-08-17T12:36:36.821Z,35.43
2023-08-17T12:39:05.602Z,35.93
2023-08-17T12:41:32.584Z,36.46
2023-08-17T12:44:00.333Z,36.85
2023-08-17T12:46:32.547Z,37.23
2023-08-17T12:49:00.444Z,37.35
2023-08-17T12:51:27.461Z,37.61
2023-08-17T12:53:54.108Z,38.15
2023-08-17T12:56:20.880Z,38.79
2023-08-17T12:58:47.739Z,39.42
2023-08-17T13:01:15.291Z,39.67
2023-08-17T13:03:42.103Z,39.51
2023-08-17T13:06:09.321Z,39.12
2023-08-17T13:08:36.036Z,38.90
2023-08-17T13:11:02.664Z,38.64
2023-08-17T13:13:29.338Z,38.14
2023-08-17T13:15:56.091Z,37.56
2023-08-17T13:18:22.931Z,37.07
2023-08-17T13:20:49.549Z,36.78
2023-08-17T13:23:16.217Z,36.70
2023-08-17T13:25:43.678Z,36.52
2023-08-17T13:28:10.341Z,36.25
2023-08-17T13:30:36.958Z,36.02
2023-08-17T13:33:03.975Z,36.01
2023-08-17T13:35:30.777Z,35.99
2023-08-17T13:37:58.769Z,35.96
2023-08-17T13:40:25.963Z,35.80
2023-08-17T13:42:52.589Z,35.53
2023-08-17T13:45:19.222Z,35.23
2023-08-17T13:47:47.664Z,35.04
2023-08-17T13:50:14.326Z,35.06
2023-08-17T13:52:40.938Z,35.09
2023-08-17T13:55:07.986Z,34.92
2023-08-17T13:57:34.944Z,34.87
2023-08-17T14:00:01.658Z,35.04
2023-08-17T14:02:30.787Z,35.29
2023-08-17T14:04:58.171Z,35.53
2023-08-17T14:07:24.837Z,35.80
2023-08-17T14:10:05.586Z,35.80
2023-08-17T14:12:35.120Z,35.62
2023-08-17T14:15:01.908Z,35.61
2023-08-17T14:17:28.550Z,35.61
2023-08-17T14:19:56.086Z,35.69
2023-08-17T14:22:22.744Z,35.76
2023-08-17T14:24:49.759Z,35.93
2023-08-17T14:27:16.369Z,36.12
2023-08-17T14:29:48.034Z,36.31
2023-08-17T14:32:15.315Z,36.36
2023-08-17T14:34:41.955Z,36.24
2023-08-17T14:37:08.568Z,35.94
2023-08-17T14:39:37.568Z,35.83
2023-08-17T14:42:06.109Z,35.78
2023-08-17T14:44:35.555Z,35.63
2023-08-17T14:47:02.270Z,35.57
2023-08-17T14:49:28.887Z,35.60
2023-08-17T14:51:55.744Z,35.55
2023-08-17T14:54:22.418Z,35.44
2023-08-17T14:56:49.145Z,35.41
2023-08-17T14:59:15.811Z,35.38
2023-08-17T15:01:42.459Z,35.23
2023-08-17T15:04:09.101Z,35.25
2023-08-17T15:06:41.895Z,35.23
2023-08-17T15:09:09.011Z,35.10
2023-08-17T15:11:37.050Z,34.80
2023-08-17T15:14:03.825Z,34.64
2023-08-17T15:16:30.481Z,34.49
2023-08-17T15:18:57.267Z,34.37
2023-08-17T15:21:23.945Z,34.30
2023-08-17T15:23:50.711Z,34.30
2023-08-17T15:26:17.470Z,34.21
2023-08-17T15:28:44.517Z,34.18
2023-08-17T15:31:14.303Z,34.10
2023-08-17T15:33:41.648Z,33.98
2023-08-17T15:36:08.557Z,33.92
2023-08-17T15:38:35.483Z,33.87
2023-08-17T15:41:02.162Z,33.76
2023-08-17T15:43:28.837Z,33.65
2023-08-17T15:45:55.609Z,33.61
2023-08-17T15:48:22.333Z,33.53
2023-08-17T15:50:49.028Z,33.43
2023-08-17T15:53:15.709Z,33.22
2023-08-17T15:55:42.392Z,33.00
2023-08-17T15:58:10.839Z,32.84
2023-08-17T16:00:37.895Z,32.73
2023-08-17T16:03:05.107Z,32.62
2023-08-17T16:05:32.522Z,32.50
2023-08-17T16:07:59.476Z,32.41
2023-08-17T16:10:27.047Z,32.35
2023-08-17T16:12:53.704Z,32.26
2023-08-17T16:15:20.328Z,32.14
2023-08-17T16:17:47.087Z,32.07
2023-08-17T16:20:13.796Z,31.96
2023-08-17T16:22:40.597Z,31.88
2023-08-17T16:25:08.370Z,31.84
2023-08-17T16:27:38.803Z,31.83
2023-08-17T16:30:06.988Z,31.85
2023-08-17T16:32:33.675Z,31.84
2023-08-17T16:35:00.507Z,31.78
2023-08-17T16:37:27.309Z,31.71
2023-08-17T16:39:54.265Z,31.66
2023-08-17T16:42:20.952Z,31.59
2023-08-17T16:44:47.564Z,31.53
2023-08-17T16:47:19.911Z,31.52
2023-08-17T16:49:46.918Z,31.51
2023-08-17T16:52:13.584Z,31.50
2023-08-17T16:54:40.364Z,31.47
2023-08-17T16:57:07.055Z,31.41
2023-08-17T16:59:33.677Z,31.34
2023-08-17T17:02:00.445Z,31.26
2023-08-17T17:04:27.157Z,31.18
2023-08-17T17:06:53.832Z,31.08
2023-08-17T17:09:21.140Z,30.99
2023-08-17T17:11:47.894Z,30.88
2023-08-17T17:14:14.515Z,30.73
2023-08-17T17:16:41.183Z,30.54
2023-08-17T17:19:07.770Z,30.34
2023-08-17T17:21:34.641Z,30.19
2023-08-17T17:24:01.274Z,30.13
2023-08-17T17:26:28.055Z,30.07
2023-08-17T17:28:54.636Z,29.99
2023-08-17T17:31:21.334Z,29.90
2023-08-17T17:33:48.059Z,29.80
2023-08-17T17:36:14.685Z,29.69
2023-08-17T17:38:41.409Z,29.55
2023-08-17T17:41:08.113Z,29.40
2023-08-17T17:43:34.715Z,29.24
2023-08-17T17:46:01.376Z,29.09
2023-08-17T17:48:30.464Z,28.92
2023-08-17T17:50:57.166Z,28.79
2023-08-17T17:53:23.866Z,28.65
2023-08-17T17:55:50.543Z,28.49
2023-08-17T17:58:17.185Z,28.33
2023-08-17T18:00:44.095Z,28.19
2023-08-17T18:03:14.877Z,28.07
2023-08-17T18:05:46.620Z,27.95
2023-08-17T18:08:13.678Z,27.83
2023-08-17T18:10:42.002Z,27.70
2023-08-17T18:13:09.585Z,27.53
2023-08-17T18:15:39.375Z,27.38
2023-08-17T18:18:06.949Z,27.26
2023-08-17T18:20:34.153Z,27.16
2023-08-17T18:23:00.866Z,27.06
2023-08-17T18:25:28.159Z,26.95
2023-08-17T18:27:55.012Z,26.85
2023-08-17T18:30:23.215Z,26.73
2023-08-17T18:32:50.962Z,26.62
2023-08-17T18:35:18.941Z,26.51
2023-08-17T18:37:46.991Z,26.42
2023-08-17T18:40:13.750Z,26.32
2023-08-17T18:42:40.647Z,26.19
2023-08-17T18:45:08.325Z,26.08
2023-08-17T18:47:35.394Z,25.96
2023-08-17T18:50:02.364Z,25.88
2023-08-17T18:52:29.008Z,25.79
2023-08-17T18:55:03.990Z,25.68
2023-08-17T18:57:33.650Z,25.57
2023-08-17T19:00:02.667Z,25.48
2023-08-17T19:02:29.429Z,25.38
2023-08-17T19:05:01.201Z,25.30
2023-08-17T19:07:29.365Z,25.23
2023-08-17T19:09:56.276Z,25.18
2023-08-17T19:12:23.051Z,25.10
2023-08-17T19:14:52.841Z,25.03
2023-08-17T19:17:19.634Z,24.96
2023-08-17T19:19:46.431Z,24.91
2023-08-17T19:22:13.121Z,24.84
2023-08-17T19:24:40.003Z,24.74
2023-08-17T19:27:06.689Z,24.68
2023-08-17T19:29:33.488Z,24.61
2023-08-17T19:32:00.284Z,24.53
2023-08-17T19:34:26.954Z,24.43
2023-08-17T19:36:53.636Z,24.35
2023-08-17T19:39:20.339Z,24.24
2023-08-17T19:41:48.572Z,24.14
2023-08-17T19:44:15.708Z,24.08
2023-08-17T19:46:42.317Z,24.03
2023-08-17T19:49:09.488Z,23.99
2023-08-17T19:51:36.185Z,23.96
2023-08-17T19:54:02.876Z,23.89
2023-08-17T19:56:29.821Z,23.82
2023-08-17T19:58:56.499Z,23.74
2023-08-17T20:01:23.814Z,23.65
2023-08-17T20:03:52.791Z,23.64
2023-08-17T20:06:19.524Z,23.65
2023-08-17T20:08:46.795Z,23.64
2023-08-17T20:11:13.541Z,23.60
2023-08-17T20:13:40.201Z,23.55
2023-08-17T20:16:07.020Z,23.51
2023-08-17T20:18:34.096Z,23.46
2023-08-17T20:21:03.288Z,23.41
2023-08-17T20:23:30.711Z,23.34
2023-08-17T20:25:57.758Z,23.28
2023-08-17T20:28:27.565Z,23.23
2023-08-17T20:31:00.519Z,23.21
2023-08-17T20:33:28.068Z,23.15
2023-08-17T20:35:56.253Z,23.12
2023-08-17T20:38:24.555Z,23.10
2023-08-17T20:40:52.649Z,23.12
2023-08-17T20:43:19.983Z,23.14
2023-08-17T20:45:46.851Z,23.09
2023-08-17T20:48:13.822Z,23.04
2023-08-17T20:50:41.899Z,22.98
2023-08-17T20:53:09.334Z,22.94
2023-08-17T20:55:41.462Z,22.91
2023-08-17T20:58:08.941Z,22.89
2023-08-17T21:00:36.967Z,22.87
2023-08-17T21:03:07.626Z,22.83
2023-08-17T21:05:34.629Z,22.81
2023-08-17T21:08:02.815Z,22.77
2023-08-17T21:10:30.247Z,22.72
2023-08-17T21:13:00.004Z,22.69
2023-08-17T21:15:26.886Z,22.64
2023-08-17T21:17:53.740Z,22.59
2023-08-17T21:20:20.740Z,22.57
2023-08-17T21:22:52.508Z,22.59
2023-08-17T21:25:20.196Z,22.59
2023-08-17T21:27:47.870Z,22.58
2023-08-17T21:30:16.774Z,22.57
2023-08-17T21:32:43.989Z,22.56
2023-08-17T21:35:12.674Z,22.55
2023-08-17T21:37:42.087Z,22.51
2023-08-17T21:40:09.657Z,22.49
2023-08-17T21:42:36.405Z,22.52
2023-08-17T21:45:03.731Z,22.57
2023-08-17T21:47:30.832Z,22.61
2023-08-17T21:49:57.770Z,22.61
2023-08-17T21:52:24.719Z,22.58
2023-08-17T21:54:51.701Z,22.56
2023-08-17T21:57:18.851Z,22.57
2023-08-17T21:59:45.538Z,22.57
2023-08-17T22:02:12.197Z,22.57
2023-08-17T22:04:38.850Z,22.58
2023-08-17T22:07:05.581Z,22.59
2023-08-17T22:09:34.650Z,22.59
2023-08-17T22:12:02.369Z,22.56
2023-08-17T22:14:32.436Z,22.52
2023-08-17T22:16:59.481Z,22.47
2023-08-17T22:19:27.100Z,22.39
2023-08-17T22:21:54.707Z,22.35
2023-08-17T22:24:21.492Z,22.34
2023-08-17T22:26:48.540Z,22.33
2023-08-17T22:29:15.427Z,22.31
2023-08-17T22:31:44.314Z,22.28
2023-08-17T22:34:11.936Z,22.25
2023-08-17T22:36:38.990Z,22.21
2023-08-17T22:39:06.706Z,22.18
2023-08-17T22:41:33.805Z,22.15
2023-08-17T22:44:00.673Z,22.13
2023-08-17T22:46:27.488Z,22.10
2023-08-17T22:48:54.238Z,22.06
2023-08-17T22:51:20.939Z,22.05
2023-08-17T22:53:47.673Z,22.02
2023-08-17T22:56:14.405Z,21.99
2023-08-17T22:58:41.008Z,21.97
2023-08-17T23:01:08.762Z,21.95
2023-08-17T23:03:35.957Z,21.97
2023-08-17T23:06:02.933Z,22.09
2023-08-17T23:08:30.288Z,22.18
2023-08-17T23:11:03.924Z,22.09
2023-08-17T23:13:30.652Z,21.84
2023-08-17T23:15:57.418Z,21.67
2023-08-17T23:18:24.095Z,21.61
2023-08-17T23:20:51.027Z,21.59
2023-08-17T23:23:18.952Z,21.61
2023-08-17T23:25:45.712Z,21.65
2023-08-17T23:28:12.543Z,21.70
2023-08-17T23:30:40.666Z,21.73
2023-08-17T23:33:07.431Z,21.71
2023-08-17T23:35:35.106Z,21.70
2023-08-17T23:38:01.722Z,21.70
2023-08-17T23:40:28.356Z,21.64
2023-08-17T23:42:54.995Z,21.66
2023-08-17T23:45:21.656Z,21.74
2023-08-17T23:47:48.314Z,21.89
2023-08-17T23:50:15.273Z,22.15
2023-08-17T23:52:42.134Z,22.36
2023-08-17T23:55:09.054Z,21.60
2023-08-17T23:57:35.795Z,20.80
